createdAt,value
2023-03-31T00:04:53.584Z,8.36
2023-03-31T00:10:18.387Z,8.32
2023-03-31T00:15:39.489Z,8.31
2023-03-31T00:21:14.514Z,8.28
2023-03-31T00:26:35.578Z,8.32
2023-03-31T00:31:57.353Z,8.28
2023-03-31T00:37:18.862Z,8.28
2023-03-31T00:42:43.536Z,8.27
2023-03-31T00:48:11.953Z,8.22
2023-03-31T00:53:33.624Z,8.23
2023-03-31T00:58:58.056Z,8.25
2023-03-31T01:04:22.708Z,8.22
2023-03-31T01:09:47.418Z,8.26
2023-03-31T01:15:09.134Z,8.35
2023-03-31T01:20:45.463Z,8.39
2023-03-31T01:26:24.764Z,8.37
2023-03-31T01:31:52.551Z,8.29
2023-03-31T01:37:23.331Z,8.31
2023-03-31T01:42:53.798Z,8.32
2023-03-31T01:48:18.669Z,8.25
2023-03-31T01:53:55.662Z,8.21
2023-03-31T01:59:31.217Z,8.20
2023-03-31T02:05:05.542Z,8.15
2023-03-31T02:10:27.507Z,8.14
2023-03-31T02:15:54.824Z,8.17
2023-03-31T02:21:16.537Z,8.24
2023-03-31T02:26:40.316Z,8.30
2023-03-31T02:32:04.202Z,8.35
2023-03-31T02:37:25.909Z,8.32
2023-03-31T02:42:46.647Z,8.27
2023-03-31T02:48:08.737Z,8.20
2023-03-31T02:53:35.416Z,8.16
2023-03-31T02:59:33.808Z,8.10
2023-03-31T03:05:13.635Z,8.12
2023-03-31T03:10:56.437Z,8.21
2023-03-31T03:16:27.539Z,8.30
2023-03-31T03:21:48.543Z,8.37
2023-03-31T03:27:09.711Z,8.44
2023-03-31T03:32:31.131Z,8.52
2023-03-31T03:37:52.210Z,8.62
2023-03-31T03:43:12.826Z,8.66
2023-03-31T03:48:33.981Z,8.70
2023-03-31T03:53:54.686Z,8.75
2023-03-31T03:59:15.749Z,8.77
2023-03-31T04:04:36.801Z,8.79
2023-03-31T04:09:57.638Z,8.80
2023-03-31T04:15:18.367Z,8.84
2023-03-31T04:20:39.118Z,8.89
2023-03-31T04:25:59.992Z,8.92
2023-03-31T04:31:25.502Z,8.88
2023-03-31T04:36:50.617Z,8.84
2023-03-31T04:42:11.727Z,8.83
2023-03-31T04:47:32.375Z,8.86
2023-03-31T04:52:53.022Z,8.94
2023-03-31T04:58:14.193Z,9.05
2023-03-31T05:03:34.931Z,9.11
2023-03-31T05:08:55.688Z,9.29
2023-03-31T05:14:16.648Z,9.49
2023-03-31T05:19:37.576Z,9.59
2023-03-31T05:24:58.261Z,9.72
2023-03-31T05:30:19.132Z,9.78
2023-03-31T05:35:39.789Z,10.02
2023-03-31T05:41:00.671Z,10.30
2023-03-31T05:46:21.441Z,10.38
2023-03-31T05:51:42.511Z,10.35
2023-03-31T05:57:03.511Z,10.43
2023-03-31T06:02:24.951Z,16.73
2023-03-31T06:07:45.888Z,23.31
2023-03-31T06:13:08.056Z,27.32
2023-03-31T06:18:29.879Z,30.02
2023-03-31T06:23:55.070Z,32.22
2023-03-31T06:29:15.674Z,33.26
2023-03-31T06:34:36.951Z,25.00
2023-03-31T06:39:58.932Z,19.61
2023-03-31T06:45:19.866Z,16.71
2023-03-31T06:50:46.305Z,15.10
2023-03-31T06:56:07.737Z,14.30
2023-03-31T07:01:28.919Z,13.68
2023-03-31T07:06:49.452Z,13.32
2023-03-31T07:12:10.466Z,13.69
2023-03-31T07:17:31.165Z,14.14
2023-03-31T07:22:51.839Z,13.85
2023-03-31T07:28:12.468Z,13.55
2023-03-31T07:33:33.151Z,13.71
2023-03-31T07:38:54.018Z,15.08
2023-03-31T07:44:16.039Z,16.84
2023-03-31T07:49:36.707Z,17.35
2023-03-31T07:54:58.080Z,17.02
2023-03-31T08:00:19.253Z,16.68
2023-03-31T08:05:40.125Z,16.45
2023-03-31T08:11:00.982Z,16.25
2023-03-31T08:16:22.445Z,15.48
2023-03-31T08:21:43.215Z,14.57
2023-03-31T08:27:03.862Z,14.12
2023-03-31T08:32:24.894Z,13.71
2023-03-31T08:37:46.041Z,13.56
2023-03-31T08:43:10.667Z,13.44
2023-03-31T08:48:45.149Z,13.11
2023-03-31T08:54:15.114Z,12.77
2023-03-31T08:59:37.716Z,12.62
2023-03-31T09:11:23.881Z,12.46
2023-03-31T09:42:00.683Z,12.16
2023-03-31T09:47:44.779Z,12.37
2023-03-31T09:53:05.380Z,12.65
2023-03-31T09:58:26.360Z,12.81
2023-03-31T10:04:15.723Z,13.17
2023-03-31T10:09:36.465Z,13.03
2023-03-31T10:15:20.259Z,12.99
2023-03-31T10:20:44.891Z,12.98
2023-03-31T10:26:06.139Z,13.40
2023-03-31T10:31:36.684Z,13.71
2023-03-31T10:37:04.717Z,13.53
2023-03-31T10:43:20.827Z,13.42
2023-03-31T11:14:27.136Z,12.44
2023-03-31T11:20:36.621Z,12.23
2023-03-31T11:26:03.511Z,12.17
2023-03-31T11:32:17.010Z,12.09
2023-03-31T11:45:43.874Z,11.66
2023-03-31T11:51:44.537Z,12.03
2023-03-31T11:57:20.919Z,12.71
2023-03-31T12:11:01.686Z,13.70
2023-03-31T12:16:41.469Z,13.48
2023-03-31T12:22:17.024Z,13.87
2023-03-31T12:28:39.086Z,15.22
2023-03-31T12:34:34.791Z,16.11
2023-03-31T12:49:21.422Z,15.02
2023-03-31T13:18:52.488Z,15.34
2023-03-31T13:24:13.967Z,15.54
2023-03-31T13:29:44.717Z,15.51
2023-03-31T13:35:07.877Z,15.41
2023-03-31T13:41:16.268Z,15.44
2023-03-31T13:46:56.205Z,14.80
2023-03-31T13:52:25.427Z,14.25
2023-03-31T13:58:34.482Z,13.56
2023-03-31T14:04:36.508Z,12.49
2023-03-31T14:34:27.164Z,12.31
2023-03-31T14:39:53.266Z,12.45
2023-03-31T14:45:18.849Z,12.19
2023-03-31T15:10:08.188Z,11.71
2023-03-31T15:28:39.615Z,11.57
2023-03-31T15:34:00.792Z,11.66
2023-03-31T15:39:25.118Z,11.94
2023-03-31T15:45:56.223Z,12.22
2023-03-31T15:51:18.021Z,12.07
2023-03-31T15:56:45.983Z,11.66
2023-03-31T16:02:11.097Z,11.33
2023-03-31T16:08:18.770Z,11.18
2023-03-31T16:20:19.540Z,11.23
2023-03-31T16:33:55.354Z,11.46
2023-03-31T16:52:22.716Z,11.14
2023-03-31T16:57:44.229Z,11.05
2023-03-31T17:03:18.870Z,10.92
2023-03-31T17:08:40.134Z,10.81
2023-03-31T17:14:02.329Z,10.67
2023-03-31T17:19:23.158Z,10.56
2023-03-31T17:31:35.204Z,10.43
2023-03-31T17:36:57.798Z,10.36
2023-03-31T17:42:20.895Z,10.27
2023-03-31T17:47:44.324Z,10.16
2023-03-31T17:53:09.334Z,9.99
2023-03-31T18:11:44.357Z,9.64
2023-03-31T18:17:04.970Z,9.60
2023-03-31T18:22:26.714Z,9.50
2023-03-31T18:27:49.157Z,9.45
2023-03-31T18:33:11.055Z,9.42
2023-03-31T18:38:32.674Z,9.36
2023-03-31T18:43:53.449Z,9.30
2023-03-31T18:49:15.506Z,9.20
2023-03-31T18:54:36.666Z,9.17
2023-03-31T18:59:57.847Z,9.32
2023-03-31T19:05:18.744Z,9.42
2023-03-31T19:10:39.347Z,9.34
2023-03-31T19:16:00.018Z,9.22
2023-03-31T19:21:21.051Z,9.13
2023-03-31T19:26:42.056Z,9.07
2023-03-31T19:32:02.776Z,9.02
2023-03-31T19:37:24.236Z,8.95
2023-03-31T19:42:47.974Z,8.97
2023-03-31T19:48:08.758Z,9.10
2023-03-31T19:53:52.349Z,9.24
2023-03-31T19:59:13.419Z,9.29
2023-03-31T20:04:34.443Z,9.33
2023-03-31T20:09:55.625Z,9.29
2023-03-31T20:15:17.054Z,9.27
2023-03-31T20:20:38.331Z,9.24
2023-03-31T20:26:00.964Z,9.27
2023-03-31T20:31:23.799Z,9.38
2023-03-31T20:36:46.467Z,9.45
2023-03-31T20:42:17.467Z,9.46
2023-03-31T20:48:06.362Z,9.46
2023-03-31T21:06:12.189Z,9.14
2023-03-31T21:11:34.176Z,9.07
2023-03-31T21:16:55.744Z,8.98
2023-03-31T21:22:18.149Z,8.91
2023-03-31T21:27:39.606Z,8.81
2023-03-31T21:33:01.219Z,8.72
2023-03-31T21:38:22.875Z,8.65
2023-03-31T21:43:44.287Z,8.66
2023-03-31T21:49:06.477Z,8.62
2023-03-31T21:54:27.908Z,8.61
2023-03-31T21:59:49.604Z,8.60
2023-03-31T22:05:11.200Z,8.57
2023-03-31T22:10:33.085Z,8.58
2023-03-31T22:15:54.715Z,8.58
2023-03-31T22:21:21.751Z,8.62
2023-03-31T22:26:43.349Z,8.67
2023-03-31T22:32:05.044Z,8.69
2023-03-31T22:37:26.413Z,8.82
2023-03-31T22:42:48.520Z,8.81
2023-03-31T22:48:10.232Z,8.91
2023-03-31T22:53:32.495Z,9.07
2023-03-31T22:58:57.007Z,9.16
2023-03-31T23:04:18.715Z,9.22
2023-03-31T23:09:40.433Z,9.33
2023-03-31T23:15:02.389Z,9.38
2023-03-31T23:20:24.715Z,9.42
2023-03-31T23:25:46.029Z,9.48
2023-03-31T23:31:07.626Z,9.44
2023-03-31T23:36:28.961Z,9.48
2023-03-31T23:41:51.262Z,9.51
2023-03-31T23:47:12.669Z,9.50
2023-03-31T23:52:35.978Z,9.51
2023-03-31T23:57:57.569Z,9.50
